Hillsdale, Wisconsin
Current Conditions -  °F | °C
As of 1:15 PM on Saturday 25 Oct 2014 (Local Time) from KRPD Reporting Station
Clear Clear  
Wind Chill: 58°   Ceiling: Unl
Heat Index: 58°   Visibility: 10mi
Dew Point: 30°   Wind: 14mph
Humidity: 33%   Direction: 280°W
Pressure: 29.99"   Gusts: NA
Location:  45.32°N, 91.86°W
Report Text: KRPD 251815Z AUTO 28012KT 10SM CLR 15/M01 A2999 RMK AO2 T01471013
Loading
Personal Weather Stations






























Interactive Weather Map
Tropical Storm Tracking
New forecast layout! Learn more

10-Day Weather Forecast

Advertisements
Track Severe Weather on mobile